sensor_id;sensor_type;location;lat;lon;timestamp;temperature;humidity
19522;DHT22;9905;52.126;5.596;2023-04-01T00:01:11;10.20;99.90
19522;DHT22;9905;52.126;5.596;2023-04-01T00:03:39;10.20;99.90
19522;DHT22;9905;52.126;5.596;2023-04-01T00:06:06;10.20;99.90
19522;DHT22;9905;52.126;5.596;2023-04-01T00:08:33;10.20;99.90
19522;DHT22;9905;52.126;5.596;2023-04-01T00:11:01;10.20;99.90
19522;DHT22;9905;52.126;5.596;2023-04-01T00:13:28;10.20;99.90
19522;DHT22;9905;52.126;5.596;2023-04-01T00:15:55;10.20;99.90
19522;DHT22;9905;52.126;5.596;2023-04-01T00:18:22;10.20;99.90
19522;DHT22;9905;52.126;5.596;2023-04-01T00:20:50;10.20;99.90
19522;DHT22;9905;52.126;5.596;2023-04-01T00:23:19;10.20;99.90
19522;DHT22;9905;52.126;5.596;2023-04-01T00:25:46;10.20;99.90
19522;DHT22;9905;52.126;5.596;2023-04-01T00:28:16;10.20;99.90
19522;DHT22;9905;52.126;5.596;2023-04-01T00:30:43;10.30;99.90
19522;DHT22;9905;52.126;5.596;2023-04-01T00:33:12;10.20;99.90
19522;DHT22;9905;52.126;5.596;2023-04-01T00:35:40;10.20;99.90
19522;DHT22;9905;52.126;5.596;2023-04-01T00:38:07;10.20;99.90
19522;DHT22;9905;52.126;5.596;2023-04-01T00:40:38;10.30;99.90
19522;DHT22;9905;52.126;5.596;2023-04-01T00:43:11;10.30;99.90
19522;DHT22;9905;52.126;5.596;2023-04-01T00:45:40;10.20;99.90
19522;DHT22;9905;52.126;5.596;2023-04-01T00:48:10;10.30;99.90
19522;DHT22;9905;52.126;5.596;2023-04-01T00:50:39;10.20;99.90
19522;DHT22;9905;52.126;5.596;2023-04-01T00:53:08;10.20;99.90
19522;DHT22;9905;52.126;5.596;2023-04-01T00:55:39;10.20;99.90
19522;DHT22;9905;52.126;5.596;2023-04-01T00:58:14;10.20;99.90
19522;DHT22;9905;52.126;5.596;2023-04-01T01:00:42;10.20;99.90
19522;DHT22;9905;52.126;5.596;2023-04-01T01:03:09;10.20;99.90
19522;DHT22;9905;52.126;5.596;2023-04-01T01:06:06;10.20;99.90
19522;DHT22;9905;52.126;5.596;2023-04-01T01:08:44;10.20;99.90
19522;DHT22;9905;52.126;5.596;2023-04-01T01:11:14;10.20;99.90
19522;DHT22;9905;52.126;5.596;2023-04-01T01:13:48;10.30;99.90
19522;DHT22;9905;52.126;5.596;2023-04-01T01:16:25;10.20;99.90
19522;DHT22;9905;52.126;5.596;2023-04-01T01:18:56;10.20;99.90
19522;DHT22;9905;52.126;5.596;2023-04-01T01:21:37;10.20;99.90
19522;DHT22;9905;52.126;5.596;2023-04-01T01:24:17;10.20;99.90
19522;DHT22;9905;52.126;5.596;2023-04-01T01:26:53;10.20;99.90
19522;DHT22;9905;52.126;5.596;2023-04-01T01:29:42;10.20;99.90
19522;DHT22;9905;52.126;5.596;2023-04-01T01:32:22;10.20;99.90
19522;DHT22;9905;52.126;5.596;2023-04-01T01:35:02;10.10;99.90
19522;DHT22;9905;52.126;5.596;2023-04-01T01:37:31;10.10;99.90
19522;DHT22;9905;52.126;5.596;2023-04-01T01:40:01;10.10;99.90
19522;DHT22;9905;52.126;5.596;2023-04-01T01:42:30;10.10;99.90
19522;DHT22;9905;52.126;5.596;2023-04-01T01:44:59;10.10;99.90
19522;DHT22;9905;52.126;5.596;2023-04-01T01:47:28;10.10;99.90
19522;DHT22;9905;52.126;5.596;2023-04-01T01:49:55;10.00;99.90
19522;DHT22;9905;52.126;5.596;2023-04-01T01:52:26;10.00;99.90
19522;DHT22;9905;52.126;5.596;2023-04-01T01:54:55;10.10;99.90
19522;DHT22;9905;52.126;5.596;2023-04-01T01:57:24;10.10;99.90
19522;DHT22;9905;52.126;5.596;2023-04-01T01:59:55;10.00;99.90
19522;DHT22;9905;52.126;5.596;2023-04-01T02:02:23;10.00;99.90
19522;DHT22;9905;52.126;5.596;2023-04-01T02:04:51;10.00;99.90
19522;DHT22;9905;52.126;5.596;2023-04-01T02:07:22;10.00;99.90
19522;DHT22;9905;52.126;5.596;2023-04-01T02:09:51;10.00;99.90
19522;DHT22;9905;52.126;5.596;2023-04-01T02:12:19;9.90;99.90
19522;DHT22;9905;52.126;5.596;2023-04-01T02:14:51;9.90;99.90
19522;DHT22;9905;52.126;5.596;2023-04-01T02:17:19;9.90;99.90
19522;DHT22;9905;52.126;5.596;2023-04-01T02:19:49;10.00;99.90
19522;DHT22;9905;52.126;5.596;2023-04-01T02:22:19;10.00;99.90
19522;DHT22;9905;52.126;5.596;2023-04-01T02:24:48;10.00;99.90
19522;DHT22;9905;52.126;5.596;2023-04-01T02:27:17;9.90;99.90
19522;DHT22;9905;52.126;5.596;2023-04-01T02:29:44;9.90;99.90
19522;DHT22;9905;52.126;5.596;2023-04-01T02:32:12;9.90;99.90
19522;DHT22;9905;52.126;5.596;2023-04-01T02:34:39;10.00;99.90
19522;DHT22;9905;52.126;5.596;2023-04-01T02:37:06;9.90;99.90
19522;DHT22;9905;52.126;5.596;2023-04-01T02:39:33;9.90;99.90
19522;DHT22;9905;52.126;5.596;2023-04-01T02:42:00;9.90;99.90
19522;DHT22;9905;52.126;5.596;2023-04-01T02:44:28;9.90;99.90
19522;DHT22;9905;52.126;5.596;2023-04-01T02:46:55;9.90;99.90
19522;DHT22;9905;52.126;5.596;2023-04-01T02:49:22;9.90;99.90
19522;DHT22;9905;52.126;5.596;2023-04-01T02:51:48;9.90;99.90
19522;DHT22;9905;52.126;5.596;2023-04-01T02:54:17;9.90;99.90
19522;DHT22;9905;52.126;5.596;2023-04-01T02:56:44;9.80;99.90
19522;DHT22;9905;52.126;5.596;2023-04-01T02:59:11;9.80;99.90
19522;DHT22;9905;52.126;5.596;2023-04-01T03:01:39;9.80;99.90
19522;DHT22;9905;52.126;5.596;2023-04-01T03:04:06;9.80;99.90
19522;DHT22;9905;52.126;5.596;2023-04-01T03:06:33;9.80;99.90
19522;DHT22;9905;52.126;5.596;2023-04-01T03:09:00;9.80;99.90
19522;DHT22;9905;52.126;5.596;2023-04-01T03:11:27;9.70;99.90
19522;DHT22;9905;52.126;5.596;2023-04-01T03:13:54;9.70;99.90
19522;DHT22;9905;52.126;5.596;2023-04-01T03:16:22;9.70;99.90
19522;DHT22;9905;52.126;5.596;2023-04-01T03:18:50;9.70;99.90
19522;DHT22;9905;52.126;5.596;2023-04-01T03:21:20;9.70;99.90
19522;DHT22;9905;52.126;5.596;2023-04-01T03:23:47;9.70;99.90
19522;DHT22;9905;52.126;5.596;2023-04-01T03:26:14;9.70;99.90
19522;DHT22;9905;52.126;5.596;2023-04-01T03:28:41;9.70;99.90
19522;DHT22;9905;52.126;5.596;2023-04-01T03:31:08;9.70;99.90
19522;DHT22;9905;52.126;5.596;2023-04-01T03:33:35;9.70;99.90
19522;DHT22;9905;52.126;5.596;2023-04-01T03:36:04;9.70;99.90
19522;DHT22;9905;52.126;5.596;2023-04-01T03:38:32;9.70;99.90
19522;DHT22;9905;52.126;5.596;2023-04-01T03:40:59;9.70;99.90
19522;DHT22;9905;52.126;5.596;2023-04-01T03:43:26;9.70;99.90
19522;DHT22;9905;52.126;5.596;2023-04-01T03:45:52;9.60;99.90
19522;DHT22;9905;52.126;5.596;2023-04-01T03:48:20;9.60;99.90
19522;DHT22;9905;52.126;5.596;2023-04-01T03:50:47;9.70;99.90
19522;DHT22;9905;52.126;5.596;2023-04-01T03:53:15;9.70;99.90
19522;DHT22;9905;52.126;5.596;2023-04-01T03:55:42;9.60;99.90
19522;DHT22;9905;52.126;5.596;2023-04-01T03:58:09;9.60;99.90
19522;DHT22;9905;52.126;5.596;2023-04-01T04:00:36;9.70;99.90
19522;DHT22;9905;52.126;5.596;2023-04-01T04:03:03;9.70;99.90
19522;DHT22;9905;52.126;5.596;2023-04-01T04:05:30;9.70;99.90
19522;DHT22;9905;52.126;5.596;2023-04-01T04:07:56;9.60;99.90
19522;DHT22;9905;52.126;5.596;2023-04-01T04:10:25;9.60;99.90
19522;DHT22;9905;52.126;5.596;2023-04-01T04:12:52;9.60;99.90
19522;DHT22;9905;52.126;5.596;2023-04-01T04:15:18;9.60;99.90
19522;DHT22;9905;52.126;5.596;2023-04-01T04:17:46;9.60;99.90
19522;DHT22;9905;52.126;5.596;2023-04-01T04:20:13;9.60;99.90
19522;DHT22;9905;52.126;5.596;2023-04-01T04:22:40;9.60;99.90
19522;DHT22;9905;52.126;5.596;2023-04-01T04:25:07;9.60;99.90
19522;DHT22;9905;52.126;5.596;2023-04-01T04:27:36;9.60;99.90
19522;DHT22;9905;52.126;5.596;2023-04-01T04:30:04;9.70;99.90
19522;DHT22;9905;52.126;5.596;2023-04-01T04:32:31;9.70;99.90
19522;DHT22;9905;52.126;5.596;2023-04-01T04:34:58;9.70;99.90
19522;DHT22;9905;52.126;5.596;2023-04-01T04:37:26;9.70;99.90
19522;DHT22;9905;52.126;5.596;2023-04-01T04:39:52;9.70;99.90
19522;DHT22;9905;52.126;5.596;2023-04-01T04:42:19;9.70;99.90
19522;DHT22;9905;52.126;5.596;2023-04-01T04:44:47;9.70;99.90
19522;DHT22;9905;52.126;5.596;2023-04-01T04:47:14;9.70;99.90
19522;DHT22;9905;52.126;5.596;2023-04-01T04:49:41;9.70;99.90
19522;DHT22;9905;52.126;5.596;2023-04-01T04:52:07;9.70;99.90
19522;DHT22;9905;52.126;5.596;2023-04-01T04:54:35;9.70;99.90
19522;DHT22;9905;52.126;5.596;2023-04-01T04:57:01;9.70;99.90
19522;DHT22;9905;52.126;5.596;2023-04-01T04:59:28;9.70;99.90
19522;DHT22;9905;52.126;5.596;2023-04-01T05:01:56;9.70;99.90
19522;DHT22;9905;52.126;5.596;2023-04-01T05:04:23;9.70;99.90
19522;DHT22;9905;52.126;5.596;2023-04-01T05:06:50;9.70;99.90
19522;DHT22;9905;52.126;5.596;2023-04-01T05:09:17;9.80;99.90
19522;DHT22;9905;52.126;5.596;2023-04-01T05:11:43;9.70;99.90
19522;DHT22;9905;52.126;5.596;2023-04-01T05:14:13;9.70;99.90
19522;DHT22;9905;52.126;5.596;2023-04-01T05:16:39;9.70;99.90
19522;DHT22;9905;52.126;5.596;2023-04-01T05:19:08;9.70;99.90
19522;DHT22;9905;52.126;5.596;2023-04-01T05:21:34;9.70;99.90
19522;DHT22;9905;52.126;5.596;2023-04-01T05:24:01;9.80;99.90
19522;DHT22;9905;52.126;5.596;2023-04-01T05:26:28;9.70;99.90
19522;DHT22;9905;52.126;5.596;2023-04-01T05:28:54;9.80;99.90
19522;DHT22;9905;52.126;5.596;2023-04-01T05:31:21;9.70;99.90
19522;DHT22;9905;52.126;5.596;2023-04-01T05:33:49;9.70;99.90
19522;DHT22;9905;52.126;5.596;2023-04-01T05:36:17;9.70;99.90
19522;DHT22;9905;52.126;5.596;2023-04-01T05:38:44;9.70;99.90
19522;DHT22;9905;52.126;5.596;2023-04-01T05:41:12;9.70;99.90
19522;DHT22;9905;52.126;5.596;2023-04-01T05:43:40;9.70;99.90
19522;DHT22;9905;52.126;5.596;2023-04-01T05:46:06;9.80;99.90
19522;DHT22;9905;52.126;5.596;2023-04-01T05:48:34;9.80;99.90
19522;DHT22;9905;52.126;5.596;2023-04-01T05:51:01;9.80;99.90
19522;DHT22;9905;52.126;5.596;2023-04-01T05:53:29;9.80;99.90
19522;DHT22;9905;52.126;5.596;2023-04-01T05:55:56;9.80;99.90
19522;DHT22;9905;52.126;5.596;2023-04-01T05:58:22;9.80;99.90
19522;DHT22;9905;52.126;5.596;2023-04-01T06:00:49;9.80;99.90
19522;DHT22;9905;52.126;5.596;2023-04-01T06:03:16;9.90;99.90
19522;DHT22;9905;52.126;5.596;2023-04-01T06:05:43;9.90;99.90
19522;DHT22;9905;52.126;5.596;2023-04-01T06:08:13;9.90;99.90
19522;DHT22;9905;52.126;5.596;2023-04-01T06:13:57;9.90;99.90
19522;DHT22;9905;52.126;5.596;2023-04-01T06:16:37;10.00;99.90
19522;DHT22;9905;52.126;5.596;2023-04-01T06:19:16;10.00;99.90
19522;DHT22;9905;52.126;5.596;2023-04-01T06:21:58;10.00;99.90
19522;DHT22;9905;52.126;5.596;2023-04-01T06:24:39;10.10;99.90
19522;DHT22;9905;52.126;5.596;2023-04-01T06:27:17;10.10;99.90
19522;DHT22;9905;52.126;5.596;2023-04-01T06:30:30;10.10;99.90
19522;DHT22;9905;52.126;5.596;2023-04-01T06:33:13;10.10;99.90
19522;DHT22;9905;52.126;5.596;2023-04-01T06:35:57;10.10;99.90
19522;DHT22;9905;52.126;5.596;2023-04-01T06:38:57;10.20;99.90
19522;DHT22;9905;52.126;5.596;2023-04-01T06:41:38;10.20;99.90
19522;DHT22;9905;52.126;5.596;2023-04-01T06:44:16;10.20;99.90
19522;DHT22;9905;52.126;5.596;2023-04-01T06:46:50;10.20;99.90
19522;DHT22;9905;52.126;5.596;2023-04-01T06:49:33;10.20;99.90
19522;DHT22;9905;52.126;5.596;2023-04-01T06:52:08;10.20;99.90
19522;DHT22;9905;52.126;5.596;2023-04-01T06:54:40;10.20;99.90
19522;DHT22;9905;52.126;5.596;2023-04-01T06:57:18;10.20;99.90
19522;DHT22;9905;52.126;5.596;2023-04-01T06:59:47;10.20;99.90
19522;DHT22;9905;52.126;5.596;2023-04-01T07:02:22;10.20;99.90
19522;DHT22;9905;52.126;5.596;2023-04-01T07:04:53;10.20;99.90
19522;DHT22;9905;52.126;5.596;2023-04-01T07:07:29;10.20;99.90
19522;DHT22;9905;52.126;5.596;2023-04-01T07:09:59;10.20;99.90
19522;DHT22;9905;52.126;5.596;2023-04-01T07:12:36;10.30;99.90
19522;DHT22;9905;52.126;5.596;2023-04-01T07:15:14;10.30;99.90
19522;DHT22;9905;52.126;5.596;2023-04-01T07:17:44;10.30;99.90
19522;DHT22;9905;52.126;5.596;2023-04-01T07:20:16;10.30;99.90
19522;DHT22;9905;52.126;5.596;2023-04-01T07:22:44;10.30;99.90
19522;DHT22;9905;52.126;5.596;2023-04-01T07:25:14;10.30;99.90
19522;DHT22;9905;52.126;5.596;2023-04-01T07:27:42;10.30;99.90
19522;DHT22;9905;52.126;5.596;2023-04-01T07:30:16;10.30;99.90
19522;DHT22;9905;52.126;5.596;2023-04-01T07:32:46;10.30;99.90
19522;DHT22;9905;52.126;5.596;2023-04-01T07:35:23;10.30;99.90
19522;DHT22;9905;52.126;5.596;2023-04-01T07:38:01;10.30;99.90
19522;DHT22;9905;52.126;5.596;2023-04-01T07:40:35;10.30;99.90
19522;DHT22;9905;52.126;5.596;2023-04-01T07:43:18;10.30;99.90
19522;DHT22;9905;52.126;5.596;2023-04-01T07:45:58;10.30;99.90
19522;DHT22;9905;52.126;5.596;2023-04-01T07:48:30;10.30;99.90
19522;DHT22;9905;52.126;5.596;2023-04-01T07:51:02;10.40;99.90
19522;DHT22;9905;52.126;5.596;2023-04-01T07:53:35;10.40;99.90
19522;DHT22;9905;52.126;5.596;2023-04-01T07:56:06;10.40;99.90
19522;DHT22;9905;52.126;5.596;2023-04-01T07:58:44;10.40;99.90
19522;DHT22;9905;52.126;5.596;2023-04-01T08:01:19;10.40;99.90
19522;DHT22;9905;52.126;5.596;2023-04-01T08:04:04;10.40;99.90
19522;DHT22;9905;52.126;5.596;2023-04-01T08:06:36;10.50;99.90
19522;DHT22;9905;52.126;5.596;2023-04-01T08:09:09;10.40;99.90
19522;DHT22;9905;52.126;5.596;2023-04-01T08:11:47;10.50;99.90
19522;DHT22;9905;52.126;5.596;2023-04-01T08:14:25;10.50;99.90
19522;DHT22;9905;52.126;5.596;2023-04-01T08:17:01;10.50;99.90
19522;DHT22;9905;52.126;5.596;2023-04-01T08:19:40;10.50;99.90
19522;DHT22;9905;52.126;5.596;2023-04-01T08:22:15;10.50;99.90
19522;DHT22;9905;52.126;5.596;2023-04-01T08:24:45;10.50;99.90
19522;DHT22;9905;52.126;5.596;2023-04-01T08:27:18;10.60;99.90
19522;DHT22;9905;52.126;5.596;2023-04-01T08:29:51;10.60;99.90
19522;DHT22;9905;52.126;5.596;2023-04-01T08:32:25;10.60;99.90
19522;DHT22;9905;52.126;5.596;2023-04-01T08:35:02;10.70;99.90
19522;DHT22;9905;52.126;5.596;2023-04-01T08:37:36;10.70;99.90
19522;DHT22;9905;52.126;5.596;2023-04-01T08:43:08;10.80;99.90
19522;DHT22;9905;52.126;5.596;2023-04-01T08:46:17;10.80;99.90
19522;DHT22;9905;52.126;5.596;2023-04-01T08:49:00;10.80;99.90
19522;DHT22;9905;52.126;5.596;2023-04-01T08:51:51;10.90;99.90
19522;DHT22;9905;52.126;5.596;2023-04-01T08:54:46;11.00;99.90
19522;DHT22;9905;52.126;5.596;2023-04-01T08:57:24;11.00;99.90
19522;DHT22;9905;52.126;5.596;2023-04-01T09:00:10;10.90;99.90
19522;DHT22;9905;52.126;5.596;2023-04-01T09:02:51;10.90;99.90
19522;DHT22;9905;52.126;5.596;2023-04-01T09:05:58;10.90;99.90
19522;DHT22;9905;52.126;5.596;2023-04-01T09:08:39;10.90;99.90
19522;DHT22;9905;52.126;5.596;2023-04-01T09:11:16;11.00;99.90
19522;DHT22;9905;52.126;5.596;2023-04-01T09:17:28;11.00;99.90
19522;DHT22;9905;52.126;5.596;2023-04-01T09:20:15;11.10;99.90
19522;DHT22;9905;52.126;5.596;2023-04-01T09:22:53;11.10;99.90
19522;DHT22;9905;52.126;5.596;2023-04-01T09:25:54;11.20;99.90
19522;DHT22;9905;52.126;5.596;2023-04-01T09:28:31;11.30;99.90
19522;DHT22;9905;52.126;5.596;2023-04-01T09:31:24;11.30;99.90
19522;DHT22;9905;52.126;5.596;2023-04-01T09:34:25;11.40;99.90
19522;DHT22;9905;52.126;5.596;2023-04-01T09:40:13;11.50;99.90
19522;DHT22;9905;52.126;5.596;2023-04-01T09:42:44;11.50;99.90
19522;DHT22;9905;52.126;5.596;2023-04-01T09:45:23;11.60;99.90
19522;DHT22;9905;52.126;5.596;2023-04-01T09:48:05;11.60;99.90
19522;DHT22;9905;52.126;5.596;2023-04-01T09:50:45;11.70;99.90
19522;DHT22;9905;52.126;5.596;2023-04-01T09:53:32;11.70;99.90
19522;DHT22;9905;52.126;5.596;2023-04-01T09:56:31;11.60;99.90
19522;DHT22;9905;52.126;5.596;2023-04-01T10:02:48;11.70;99.90
19522;DHT22;9905;52.126;5.596;2023-04-01T10:06:03;11.80;99.90
19522;DHT22;9905;52.126;5.596;2023-04-01T10:08:55;11.90;99.90
19522;DHT22;9905;52.126;5.596;2023-04-01T10:18:18;11.90;99.90
19522;DHT22;9905;52.126;5.596;2023-04-01T10:21:05;12.00;99.90
19522;DHT22;9905;52.126;5.596;2023-04-01T10:27:02;12.00;99.90
19522;DHT22;9905;52.126;5.596;2023-04-01T10:36:06;12.10;99.90
19522;DHT22;9905;52.126;5.596;2023-04-01T10:45:05;12.00;99.90
19522;DHT22;9905;52.126;5.596;2023-04-01T10:48:01;12.00;99.90
19522;DHT22;9905;52.126;5.596;2023-04-01T10:53:42;12.00;99.90
19522;DHT22;9905;52.126;5.596;2023-04-01T10:56:32;11.90;99.90
19522;DHT22;9905;52.126;5.596;2023-04-01T11:08:43;11.90;99.90
19522;DHT22;9905;52.126;5.596;2023-04-01T11:26:45;11.90;99.90
19522;DHT22;9905;52.126;5.596;2023-04-01T11:29:46;12.00;99.90
19522;DHT22;9905;52.126;5.596;2023-04-01T11:32:29;12.00;99.90
19522;DHT22;9905;52.126;5.596;2023-04-01T11:35:09;12.00;99.90
19522;DHT22;9905;52.126;5.596;2023-04-01T11:37:48;12.10;99.90
19522;DHT22;9905;52.126;5.596;2023-04-01T11:40:22;12.10;99.90
19522;DHT22;9905;52.126;5.596;2023-04-01T11:42:58;12.10;99.90
19522;DHT22;9905;52.126;5.596;2023-04-01T11:45:35;12.10;99.90
19522;DHT22;9905;52.126;5.596;2023-04-01T11:48:27;12.10;99.90
19522;DHT22;9905;52.126;5.596;2023-04-01T11:51:09;12.10;99.90
19522;DHT22;9905;52.126;5.596;2023-04-01T11:53:47;12.00;99.90
19522;DHT22;9905;52.126;5.596;2023-04-01T11:56:34;12.00;99.90
19522;DHT22;9905;52.126;5.596;2023-04-01T12:02:36;12.00;99.90
19522;DHT22;9905;52.126;5.596;2023-04-01T12:05:32;11.90;99.90
19522;DHT22;9905;52.126;5.596;2023-04-01T12:08:20;11.90;99.90
19522;DHT22;9905;52.126;5.596;2023-04-01T12:10:53;12.00;99.90
19522;DHT22;9905;52.126;5.596;2023-04-01T12:13:31;12.00;99.90
19522;DHT22;9905;52.126;5.596;2023-04-01T12:18:52;12.00;99.90
19522;DHT22;9905;52.126;5.596;2023-04-01T12:21:26;12.10;99.90
19522;DHT22;9905;52.126;5.596;2023-04-01T12:24:22;12.20;99.90
19522;DHT22;9905;52.126;5.596;2023-04-01T12:27:26;12.30;99.90
19522;DHT22;9905;52.126;5.596;2023-04-01T12:33:04;12.30;99.90
19522;DHT22;9905;52.126;5.596;2023-04-01T12:35:45;12.30;99.90
19522;DHT22;9905;52.126;5.596;2023-04-01T12:38:25;12.40;99.90
19522;DHT22;9905;52.126;5.596;2023-04-01T12:41:07;12.40;99.90
19522;DHT22;9905;52.126;5.596;2023-04-01T12:46:51;12.50;99.90
19522;DHT22;9905;52.126;5.596;2023-04-01T12:49:34;12.50;99.90
19522;DHT22;9905;52.126;5.596;2023-04-01T12:52:07;12.60;99.90
19522;DHT22;9905;52.126;5.596;2023-04-01T13:01:06;12.50;99.90
19522;DHT22;9905;52.126;5.596;2023-04-01T13:03:53;12.30;99.90
19522;DHT22;9905;52.126;5.596;2023-04-01T13:06:39;12.30;99.90
19522;DHT22;9905;52.126;5.596;2023-04-01T13:09:18;12.30;99.90
19522;DHT22;9905;52.126;5.596;2023-04-01T13:11:57;12.30;99.90
19522;DHT22;9905;52.126;5.596;2023-04-01T13:17:29;12.30;99.90
19522;DHT22;9905;52.126;5.596;2023-04-01T13:20:03;12.30;99.90
19522;DHT22;9905;52.126;5.596;2023-04-01T13:22:45;12.30;99.90
19522;DHT22;9905;52.126;5.596;2023-04-01T13:25:23;12.20;99.90
19522;DHT22;9905;52.126;5.596;2023-04-01T13:27:58;12.10;99.90
19522;DHT22;9905;52.126;5.596;2023-04-01T13:30:33;12.20;99.90
19522;DHT22;9905;52.126;5.596;2023-04-01T13:33:06;12.20;99.90
19522;DHT22;9905;52.126;5.596;2023-04-01T13:35:43;12.10;99.90
19522;DHT22;9905;52.126;5.596;2023-04-01T13:38:27;12.10;99.90
19522;DHT22;9905;52.126;5.596;2023-04-01T13:41:00;12.20;99.90
19522;DHT22;9905;52.126;5.596;2023-04-01T13:43:31;12.10;99.90
19522;DHT22;9905;52.126;5.596;2023-04-01T13:46:32;12.10;99.90
19522;DHT22;9905;52.126;5.596;2023-04-01T13:49:21;12.10;99.90
19522;DHT22;9905;52.126;5.596;2023-04-01T13:51:58;12.10;99.90
19522;DHT22;9905;52.126;5.596;2023-04-01T13:54:58;12.10;99.90
19522;DHT22;9905;52.126;5.596;2023-04-01T13:57:43;12.10;99.90
19522;DHT22;9905;52.126;5.596;2023-04-01T14:00:35;12.10;99.90
19522;DHT22;9905;52.126;5.596;2023-04-01T14:03:15;12.20;99.90
19522;DHT22;9905;52.126;5.596;2023-04-01T14:06:00;12.20;99.90
19522;DHT22;9905;52.126;5.596;2023-04-01T14:08:45;12.10;99.90
19522;DHT22;9905;52.126;5.596;2023-04-01T14:11:21;12.20;99.90
19522;DHT22;9905;52.126;5.596;2023-04-01T14:13:59;12.20;99.90
19522;DHT22;9905;52.126;5.596;2023-04-01T14:16:52;12.20;99.90
19522;DHT22;9905;52.126;5.596;2023-04-01T14:19:33;12.20;99.90
19522;DHT22;9905;52.126;5.596;2023-04-01T14:22:11;12.10;99.90
19522;DHT22;9905;52.126;5.596;2023-04-01T14:24:57;12.00;99.90
19522;DHT22;9905;52.126;5.596;2023-04-01T14:27:37;12.00;99.90
19522;DHT22;9905;52.126;5.596;2023-04-01T14:30:30;11.90;99.90
19522;DHT22;9905;52.126;5.596;2023-04-01T14:33:10;11.80;99.90
19522;DHT22;9905;52.126;5.596;2023-04-01T14:35:48;11.80;99.90
19522;DHT22;9905;52.126;5.596;2023-04-01T14:38:38;11.70;99.90
19522;DHT22;9905;52.126;5.596;2023-04-01T14:41:30;11.70;99.90
19522;DHT22;9905;52.126;5.596;2023-04-01T14:44:16;11.70;99.90
19522;DHT22;9905;52.126;5.596;2023-04-01T14:47:07;11.60;99.90
19522;DHT22;9905;52.126;5.596;2023-04-01T14:49:39;11.60;99.90
19522;DHT22;9905;52.126;5.596;2023-04-01T14:52:13;11.60;99.90
19522;DHT22;9905;52.126;5.596;2023-04-01T14:54:43;11.60;99.90
19522;DHT22;9905;52.126;5.596;2023-04-01T14:57:12;11.70;99.90
19522;DHT22;9905;52.126;5.596;2023-04-01T14:59:45;11.70;99.90
19522;DHT22;9905;52.126;5.596;2023-04-01T15:02:27;11.70;99.90
19522;DHT22;9905;52.126;5.596;2023-04-01T15:05:05;11.70;99.90
19522;DHT22;9905;52.126;5.596;2023-04-01T15:07:57;11.70;99.90
19522;DHT22;9905;52.126;5.596;2023-04-01T15:10:55;11.80;99.90
19522;DHT22;9905;52.126;5.596;2023-04-01T15:13:41;11.80;99.90
19522;DHT22;9905;52.126;5.596;2023-04-01T15:16:20;11.80;99.90
19522;DHT22;9905;52.126;5.596;2023-04-01T15:18:56;11.80;99.90
19522;DHT22;9905;52.126;5.596;2023-04-01T15:21:41;11.80;99.90
19522;DHT22;9905;52.126;5.596;2023-04-01T15:24:15;11.80;99.90
19522;DHT22;9905;52.126;5.596;2023-04-01T15:27:01;11.80;99.90
19522;DHT22;9905;52.126;5.596;2023-04-01T15:29:53;11.80;99.90
19522;DHT22;9905;52.126;5.596;2023-04-01T15:32:32;11.80;99.90
19522;DHT22;9905;52.126;5.596;2023-04-01T15:35:19;11.80;99.90
19522;DHT22;9905;52.126;5.596;2023-04-01T15:37:52;11.80;99.90
19522;DHT22;9905;52.126;5.596;2023-04-01T15:40:24;11.70;99.90
19522;DHT22;9905;52.126;5.596;2023-04-01T15:43:03;11.60;99.90
19522;DHT22;9905;52.126;5.596;2023-04-01T15:45:40;11.60;99.90
19522;DHT22;9905;52.126;5.596;2023-04-01T15:48:25;11.60;99.90
19522;DHT22;9905;52.126;5.596;2023-04-01T15:51:12;11.50;99.90
19522;DHT22;9905;52.126;5.596;2023-04-01T15:53:53;11.50;99.90
19522;DHT22;9905;52.126;5.596;2023-04-01T15:56:28;11.40;99.90
19522;DHT22;9905;52.126;5.596;2023-04-01T15:59:06;11.50;99.90
19522;DHT22;9905;52.126;5.596;2023-04-01T16:01:42;11.50;99.90
19522;DHT22;9905;52.126;5.596;2023-04-01T16:04:32;11.40;99.90
19522;DHT22;9905;52.126;5.596;2023-04-01T16:07:12;11.50;99.90
19522;DHT22;9905;52.126;5.596;2023-04-01T16:10:04;11.50;99.90
19522;DHT22;9905;52.126;5.596;2023-04-01T16:12:44;11.50;99.90
19522;DHT22;9905;52.126;5.596;2023-04-01T16:15:24;11.40;99.90
19522;DHT22;9905;52.126;5.596;2023-04-01T16:20:59;11.30;99.90
19522;DHT22;9905;52.126;5.596;2023-04-01T16:23:36;11.20;99.90
19522;DHT22;9905;52.126;5.596;2023-04-01T16:26:08;11.20;99.90
19522;DHT22;9905;52.126;5.596;2023-04-01T16:28:39;11.10;99.90
19522;DHT22;9905;52.126;5.596;2023-04-01T16:31:13;11.10;99.90
19522;DHT22;9905;52.126;5.596;2023-04-01T16:33:47;11.10;99.90
19522;DHT22;9905;52.126;5.596;2023-04-01T16:36:26;11.10;99.90
19522;DHT22;9905;52.126;5.596;2023-04-01T16:39:07;11.00;99.90
19522;DHT22;9905;52.126;5.596;2023-04-01T16:41:38;11.00;99.90
19522;DHT22;9905;52.126;5.596;2023-04-01T16:44:16;10.90;99.90
19522;DHT22;9905;52.126;5.596;2023-04-01T16:46:45;10.90;99.90
19522;DHT22;9905;52.126;5.596;2023-04-01T16:49:30;10.80;99.90
19522;DHT22;9905;52.126;5.596;2023-04-01T16:52:13;10.80;99.90
19522;DHT22;9905;52.126;5.596;2023-04-01T16:54:45;10.80;99.90
19522;DHT22;9905;52.126;5.596;2023-04-01T16:57:19;10.80;99.90
19522;DHT22;9905;52.126;5.596;2023-04-01T16:59:55;10.80;99.90
19522;DHT22;9905;52.126;5.596;2023-04-01T17:02:26;10.70;99.90
19522;DHT22;9905;52.126;5.596;2023-04-01T17:05:00;10.60;99.90
19522;DHT22;9905;52.126;5.596;2023-04-01T17:07:38;10.60;99.90
19522;DHT22;9905;52.126;5.596;2023-04-01T17:10:28;10.50;99.90
19522;DHT22;9905;52.126;5.596;2023-04-01T17:13:09;10.50;99.90
19522;DHT22;9905;52.126;5.596;2023-04-01T17:15:43;10.50;99.90
19522;DHT22;9905;52.126;5.596;2023-04-01T17:18:19;10.50;99.90
19522;DHT22;9905;52.126;5.596;2023-04-01T17:20:54;10.40;99.90
19522;DHT22;9905;52.126;5.596;2023-04-01T17:23:28;10.40;99.90
19522;DHT22;9905;52.126;5.596;2023-04-01T17:26:12;10.40;99.90
19522;DHT22;9905;52.126;5.596;2023-04-01T17:28:49;10.30;99.90
19522;DHT22;9905;52.126;5.596;2023-04-01T17:31:26;10.30;99.90
19522;DHT22;9905;52.126;5.596;2023-04-01T17:34:11;10.30;99.90
19522;DHT22;9905;52.126;5.596;2023-04-01T17:36:51;10.30;99.90
19522;DHT22;9905;52.126;5.596;2023-04-01T17:39:34;10.20;99.90
19522;DHT22;9905;52.126;5.596;2023-04-01T17:42:06;10.20;99.90
19522;DHT22;9905;52.126;5.596;2023-04-01T17:44:47;10.20;99.90
19522;DHT22;9905;52.126;5.596;2023-04-01T17:47:31;10.10;99.90
19522;DHT22;9905;52.126;5.596;2023-04-01T17:50:10;10.10;99.90
19522;DHT22;9905;52.126;5.596;2023-04-01T17:52:44;10.10;99.90
19522;DHT22;9905;52.126;5.596;2023-04-01T17:55:29;10.00;99.90
19522;DHT22;9905;52.126;5.596;2023-04-01T17:58:02;10.00;99.90
19522;DHT22;9905;52.126;5.596;2023-04-01T18:00:33;9.90;99.90
19522;DHT22;9905;52.126;5.596;2023-04-01T18:03:13;9.90;99.90
19522;DHT22;9905;52.126;5.596;2023-04-01T18:06:01;9.90;99.90
19522;DHT22;9905;52.126;5.596;2023-04-01T18:08:41;9.90;99.90
19522;DHT22;9905;52.126;5.596;2023-04-01T18:11:21;9.80;99.90
19522;DHT22;9905;52.126;5.596;2023-04-01T18:14:13;9.90;99.90
19522;DHT22;9905;52.126;5.596;2023-04-01T18:16:55;9.80;99.90